Time;durP1;ratioP1;P1;durP2;ratioP2;P2;SDS_P1;SDS_P2;PMS_P1;PMS_P2;Temp;Humidity;BMP_temperature;BMP_pressure;BME280_temperature;BME280_humidity;BME280_pressure;Samples;Min_cycle;Max_cycle;Signal;HPM_P1;HPM_P2
2022/06/19 00:00:05;;;;;;;;;;;;;;;;;;351415;28;940;-76
2022/06/19 00:00:16;;;;;;;;;;;;;;;;;;351433;28;920;-77
2022/06/19 00:00:26;;;;;;;;;;;;;;;;;;351323;28;992;-76
2022/06/19 00:00:37;;;;;;;;;;;;;;;;;;351345;28;959;-76
2022/06/19 00:00:48;;;;;;;;;;;;;;;;;;351386;28;927;-76
2022/06/19 00:00:59;;;;;;;;;;;;;;;;;;348972;28;1844;-77
2022/06/19 00:01:10;;;;;;;;;;;;;;;;;;348601;28;976;-76
2022/06/19 00:01:20;;;;;;;;;;;;;;;;;;349071;28;1488;-77
2022/06/19 00:01:31;;;;;;;;;;;;;;;;;;351307;28;821;-77
2022/06/19 00:01:41;;;;;;;;;;;;;;;;;;351381;28;972;-76
2022/06/19 00:01:51;;;;;;;;;;;;;;;;;;351326;28;1044;-76
2022/06/19 00:02:02;;;;;;;;;;;;;;;;;;351413;28;865;-76
2022/06/19 00:02:15;;;;;;;;;;;;;;;;;;351408;28;953;-76
2022/06/19 00:02:26;;;;;;;;;;;;;;;;;;351369;28;963;-77
2022/06/19 00:02:37;;;;;;;;;;;;;;;;;;351389;28;770;-76
2022/06/19 00:02:48;;;;;;;;;;;;;;;;;;351427;28;1062;-76
2022/06/19 00:02:58;;;;;;;;;;;;;;;;;;349317;28;1812;-77
2022/06/19 00:03:11;;;;;;;;;;;;;;;;;;349943;28;920;-76
2022/06/19 00:03:30;;;;;;;;;;;;;;;;;;350003;28;821;-77
2022/06/19 00:03:43;;;;;;;;;;;;;;;;;;349905;28;1047;-76
2022/06/19 00:03:55;;;;;;;;;;;;;;;;;;349988;28;949;-77
2022/06/19 00:04:06;;;;;;;;;;;;;;;;;;350018;28;948;-76
2022/06/19 00:04:16;;;;;;;;;;;;;;;;;;350004;28;968;-76
2022/06/19 00:04:27;;;;;;;;;;;;;;;;;;350049;28;762;-76
2022/06/19 00:04:38;;;;;;;;;;;;;;;;;;349958;28;988;-76
2022/06/19 00:04:50;;;;;;;;;;;;;;;;;;349981;28;936;-76
2022/06/19 00:05:00;;;;;;;;;;;;;;;;;;349970;28;1139;-76
2022/06/19 00:05:12;;;;;;;;;;;;;;;;;;349947;28;929;-77
2022/06/19 00:05:22;;;;;;;;;;;;;;;;;;349375;28;1511;-76
2022/06/19 00:05:32;;;;;;;;;;;;;;;;;;349987;28;778;-76
2022/06/19 00:05:42;;;;;;;;;;;;;;;;;;350038;28;838;-77
2022/06/19 00:05:53;;;;;;;;;;;;;;;;;;349959;28;933;-76
2022/06/19 00:06:03;;;;;;;;;;;;;;;;;;349974;28;936;-76
2022/06/19 00:06:14;;;;;;;;;;;;;;;;;;350009;28;945;-76
2022/06/19 00:06:24;;;;;;;;;;;;;;;;;;349936;28;916;-77
2022/06/19 00:06:35;;;;;;;;;;;;;;;;;;349964;28;759;-76
2022/06/19 00:06:45;;;;;;;;;;;;;;;;;;349978;28;909;-76
2022/06/19 00:06:56;;;;;;;;;;;;;;;;;;349979;28;964;-77
2022/06/19 00:07:07;;;;;;;;;;;;;;;;;;350075;28;849;-77
2022/06/19 00:07:17;;;;;;;;;;;;;;;;;;349970;28;964;-77
2022/06/19 00:07:27;;;;;;;;;;;;;;;;;;350333;28;1519;-76
2022/06/19 00:07:37;;;;;;;;;;;;;;;;;;350640;28;1471;-77
2022/06/19 00:07:48;;;;;;;;;;;;;;;;;;349982;28;845;-76
2022/06/19 00:07:58;;;;;;;;;;;;;;;;;;350021;28;889;-76
2022/06/19 00:08:08;;;;;;;;;;;;;;;;;;349982;28;905;-76
2022/06/19 00:08:19;;;;;;;;;;;;;;;;;;349997;28;984;-76
2022/06/19 00:08:29;;;;;;;;;;;;;;;;;;350036;28;979;-77
2022/06/19 00:08:40;;;;;;;;;;;;;;;;;;349938;28;925;-76
2022/06/19 00:08:51;;;;;;;;;;;;;;;;;;349999;28;794;-76
2022/06/19 00:09:02;;;;;;;;;;;;;;;;;;350023;28;782;-76
2022/06/19 00:09:13;;;;;;;;;;;;;;;;;;350009;28;837;-77
2022/06/19 00:09:24;;;;;;;;;;;;;;;;;;349876;28;936;-76
2022/06/19 00:09:34;;;;;;;;;;;;;;;;;;349950;28;932;-77
2022/06/19 00:09:44;;;;;;;;;;;;;;;;;;349981;28;928;-76
2022/06/19 00:09:54;;;;;;;;;;;;;;;;;;349955;28;1004;-77
2022/06/19 00:10:05;;;;;;;;;;;;;;;;;;349974;28;975;-77
2022/06/19 00:10:16;;;;;;;;;;;;;;;;;;348976;28;1144;-76
2022/06/19 00:10:26;;;;;;;;;;;;;;;;;;350038;28;821;-76
2022/06/19 00:10:36;;;;;;;;;;;;;;;;;;349974;28;921;-77
2022/06/19 00:10:48;;;;;;;;;;;;;;;;;;349969;28;912;-77
2022/06/19 00:10:59;;;;;;;;;;;;;;;;;;349981;28;928;-76
2022/06/19 00:11:14;;;;;;;;;;;;;;;;;;349749;28;997;-76
2022/06/19 00:11:24;;;;;;;;;;;;;;;;;;349933;28;1008;-76
2022/06/19 00:11:35;;;;;;;;;;;;;;;;;;349960;28;940;-76
2022/06/19 00:11:45;;;;;;;;;;;;;;;;;;350041;28;758;-77
2022/06/19 00:11:56;;;;;;;;;;;;;;;;;;349909;28;1031;-76
2022/06/19 00:12:06;;;;;;;;;;;;;;;;;;349997;28;908;-77
2022/06/19 00:12:18;;;;;;;;;;;;;;;;;;349996;28;853;-77
2022/06/19 00:12:28;;;;;;;;;;;;;;;;;;350010;28;935;-76
2022/06/19 00:12:39;;;;;;;;;;;;;;;;;;349998;28;992;-77
2022/06/19 00:12:49;;;;;;;;;;;;;;;;;;349969;28;877;-76
2022/06/19 00:12:59;;;;;;;;;;;;;;;;;;350014;28;972;-76
2022/06/19 00:13:09;;;;;;;;;;;;;;;;;;349999;28;949;-76
2022/06/19 00:13:19;;;;;;;;;;;;;;;;;;349917;28;1906;-76
2022/06/19 00:13:30;;;;;;;;;;;;;;;;;;349965;28;916;-76
2022/06/19 00:13:40;;;;;;;;;;;;;;;;;;349962;28;1004;-76
2022/06/19 00:13:50;;;;;;;;;;;;;;;;;;349924;28;922;-76
2022/06/19 00:14:01;;;;;;;;;;;;;;;;;;349991;28;822;-76
2022/06/19 00:14:11;;;;;;;;;;;;;;;;;;350001;28;937;-77
2022/06/19 00:14:22;;;;;;;;;;;;;;;;;;349929;28;921;-77
2022/06/19 00:14:34;;;;;;;;;;;;;;;;;;349990;28;937;-76
2022/06/19 00:14:44;;;;;;;;;;;;;;;;;;349961;28;964;-77
2022/06/19 00:14:54;;;;;;;;;;;;;;;;;;349980;28;980;-76
2022/06/19 00:15:05;;;;;;;;;;;;;;;;;;350022;28;853;-76
2022/06/19 00:15:16;;;;;;;;;;;;;;;;;;349944;28;1099;-76
2022/06/19 00:15:27;;;;;;;;;;;;;;;;;;349953;28;928;-76
2022/06/19 00:15:39;;;;;;;;;;;;;;;;;;349969;28;822;-76
2022/06/19 00:15:49;;;;;;;;;;;;;;;;;;349927;28;983;-76
2022/06/19 00:16:00;;;;;;;;;;;;;;;;;;349948;28;987;-76
2022/06/19 00:16:10;;;;;;;;;;;;;;;;;;349983;28;1022;-78
2022/06/19 00:16:20;;;;;;;;;;;;;;;;;;349987;28;937;-77
2022/06/19 00:16:31;;;;;;;;;;;;;;;;;;349908;28;940;-77
2022/06/19 00:16:41;;;;;;;;;;;;;;;;;;350010;28;968;-77
2022/06/19 00:16:52;;;;;;;;;;;;;;;;;;349952;28;960;-77
2022/06/19 00:17:04;;;;;;;;;;;;;;;;;;349944;28;941;-77
2022/06/19 00:17:15;;;;;;;;;;;;;;;;;;350011;28;809;-76
2022/06/19 00:17:25;;;;;;;;;;;;;;;;;;349984;28;916;-76
2022/06/19 00:17:36;;;;;;;;;;;;;;;;;;349947;28;944;-76
2022/06/19 00:17:46;;;;;;;;;;;;;;;;;;349932;28;928;-76
2022/06/19 00:17:56;;;;;;;;;;;;;;;;;;350043;28;798;-76
2022/06/19 00:18:06;;;;;;;;;;;;;;;;;;350015;28;947;-76
2022/06/19 00:18:17;;;;;;;;;;;;;;;;;;349694;28;1282;-77
2022/06/19 00:18:27;;;;;;;;;;;;;;;;;;349943;28;957;-77
2022/06/19 00:18:40;;;;;;;;;;;;;;;;;;349814;28;1031;-77
2022/06/19 00:18:50;;;;;;;;;;;;;;;;;;349972;28;941;-77
2022/06/19 00:19:01;;;;;;;;;;;;;;;;;;350002;28;933;-77
2022/06/19 00:19:11;;;;;;;;;;;;;;;;;;350011;28;961;-77
2022/06/19 00:19:21;;;;;;;;;;;;;;;;;;349924;28;944;-77
2022/06/19 00:19:32;;;;;;;;;;;;;;;;;;349971;28;991;-76
2022/06/19 00:19:42;;;;;;;;;;;;;;;;;;349833;28;1137;-76
2022/06/19 00:19:53;;;;;;;;;;;;;;;;;;349876;28;1020;-77
2022/06/19 00:20:04;;;;;;;;;;;;;;;;;;348735;28;1762;-76
2022/06/19 00:20:14;;;;;;;;;;;;;;;;;;348594;28;889;-77
2022/06/19 00:20:25;;;;;;;;;;;;;;;;;;348614;28;877;-77
2022/06/19 00:20:35;;;;;;;;;;;;;;;;;;348556;28;951;-77
2022/06/19 00:20:45;;;;;;;;;;;;;;;;;;348645;28;818;-76
2022/06/19 00:20:55;;;;;;;;;;;;;;;;;;348425;28;1039;-77
2022/06/19 00:21:06;;;;;;;;;;;;;;;;;;348534;28;925;-76
2022/06/19 00:21:17;;;;;;;;;;;;;;;;;;348625;28;921;-76
2022/06/19 00:21:27;;;;;;;;;;;;;;;;;;348570;28;972;-77
2022/06/19 00:21:38;;;;;;;;;;;;;;;;;;348621;28;1024;-77
2022/06/19 00:21:48;;;;;;;;;;;;;;;;;;348604;28;933;-76
2022/06/19 00:21:59;;;;;;;;;;;;;;;;;;348364;28;1127;-76
2022/06/19 00:22:09;;;;;;;;;;;;;;;;;;348569;28;826;-76
2022/06/19 00:22:19;;;;;;;;;;;;;;;;;;348577;28;1029;-77
2022/06/19 00:22:29;;;;;;;;;;;;;;;;;;348602;28;925;-77
2022/06/19 00:22:39;;;;;;;;;;;;;;;;;;348604;28;787;-76
2022/06/19 00:22:50;;;;;;;;;;;;;;;;;;348374;28;1136;-76
2022/06/19 00:23:00;;;;;;;;;;;;;;;;;;348596;28;833;-76
2022/06/19 00:23:10;;;;;;;;;;;;;;;;;;348594;28;1111;-76
2022/06/19 00:23:20;;;;;;;;;;;;;;;;;;348560;28;921;-76
2022/06/19 00:23:30;;;;;;;;;;;;;;;;;;348642;28;842;-76
2022/06/19 00:23:41;;;;;;;;;;;;;;;;;;348595;28;961;-76
2022/06/19 00:23:51;;;;;;;;;;;;;;;;;;348573;28;948;-76
2022/06/19 00:24:02;;;;;;;;;;;;;;;;;;348520;28;936;-77
2022/06/19 00:24:12;;;;;;;;;;;;;;;;;;348621;28;838;-77
2022/06/19 00:24:22;;;;;;;;;;;;;;;;;;348542;28;917;-77
2022/06/19 00:24:32;;;;;;;;;;;;;;;;;;348599;28;992;-76
2022/06/19 00:24:42;;;;;;;;;;;;;;;;;;348614;28;957;-77
2022/06/19 00:24:53;;;;;;;;;;;;;;;;;;348581;28;871;-76
2022/06/19 00:25:04;;;;;;;;;;;;;;;;;;348568;28;996;-76
2022/06/19 00:25:14;;;;;;;;;;;;;;;;;;348585;28;984;-78
2022/06/19 00:25:24;;;;;;;;;;;;;;;;;;348540;28;961;-76
2022/06/19 00:25:35;;;;;;;;;;;;;;;;;;348611;28;929;-76
2022/06/19 00:25:45;;;;;;;;;;;;;;;;;;348620;28;887;-76
2022/06/19 00:25:55;;;;;;;;;;;;;;;;;;348553;28;956;-76
2022/06/19 00:26:06;;;;;;;;;;;;;;;;;;348534;28;836;-76
2022/06/19 00:26:16;;;;;;;;;;;;;;;;;;348594;28;992;-76
2022/06/19 00:26:26;;;;;;;;;;;;;;;;;;348538;28;912;-76
2022/06/19 00:26:36;;;;;;;;;;;;;;;;;;348588;28;917;-76
2022/06/19 00:26:47;;;;;;;;;;;;;;;;;;348614;28;936;-76
2022/06/19 00:26:57;;;;;;;;;;;;;;;;;;348509;28;1008;-76
2022/06/19 00:27:07;;;;;;;;;;;;;;;;;;348581;28;797;-77
2022/06/19 00:27:17;;;;;;;;;;;;;;;;;;348597;28;924;-76
2022/06/19 00:27:28;;;;;;;;;;;;;;;;;;348531;28;1039;-76
2022/06/19 00:27:39;;;;;;;;;;;;;;;;;;348568;28;1136;-76
2022/06/19 00:27:49;;;;;;;;;;;;;;;;;;348622;28;928;-76
2022/06/19 00:27:59;;;;;;;;;;;;;;;;;;348603;28;893;-76
2022/06/19 00:28:09;;;;;;;;;;;;;;;;;;348558;28;846;-76
2022/06/19 00:28:20;;;;;;;;;;;;;;;;;;348551;28;979;-76
2022/06/19 00:28:30;;;;;;;;;;;;;;;;;;348568;28;964;-76
2022/06/19 00:28:40;;;;;;;;;;;;;;;;;;348589;28;971;-76
2022/06/19 00:28:51;;;;;;;;;;;;;;;;;;348506;28;988;-76
2022/06/19 00:29:01;;;;;;;;;;;;;;;;;;348586;28;940;-76
2022/06/19 00:29:11;;;;;;;;;;;;;;;;;;348611;28;925;-76
2022/06/19 00:29:22;;;;;;;;;;;;;;;;;;348594;28;849;-76
2022/06/19 00:29:32;;;;;;;;;;;;;;;;;;348543;28;980;-76
2022/06/19 00:29:42;;;;;;;;;;;;;;;;;;348594;28;912;-76
2022/06/19 00:29:53;;;;;;;;;;;;;;;;;;348598;28;921;-77
2022/06/19 00:30:05;;;;;;;;;;;;;;;;;;348574;28;999;-76
2022/06/19 00:30:15;;;;;;;;;;;;;;;;;;348448;28;948;-76
2022/06/19 00:30:25;;;;;;;;;;;;;;;;;;348556;28;995;-76
2022/06/19 00:30:36;;;;;;;;;;;;;;;;;;348102;28;1916;-76
2022/06/19 00:30:46;;;;;;;;;;;;;;;;;;348605;28;1458;-76
2022/06/19 00:30:56;;;;;;;;;;;;;;;;;;348574;28;829;-76
2022/06/19 00:31:07;;;;;;;;;;;;;;;;;;348582;28;834;-76
2022/06/19 00:31:17;;;;;;;;;;;;;;;;;;348626;28;936;-76
2022/06/19 00:31:28;;;;;;;;;;;;;;;;;;349106;28;1457;-76
2022/06/19 00:31:38;;;;;;;;;;;;;;;;;;351353;28;806;-76
2022/06/19 00:31:48;;;;;;;;;;;;;;;;;;351373;28;916;-76
2022/06/19 00:31:58;;;;;;;;;;;;;;;;;;351379;28;987;-76
2022/06/19 00:32:09;;;;;;;;;;;;;;;;;;351379;28;939;-76
2022/06/19 00:32:20;;;;;;;;;;;;;;;;;;351260;28;892;-76
2022/06/19 00:32:30;;;;;;;;;;;;;;;;;;351346;28;960;-76
2022/06/19 00:32:40;;;;;;;;;;;;;;;;;;349274;28;1789;-76
2022/06/19 00:32:51;;;;;;;;;;;;;;;;;;348636;28;871;-76
2022/06/19 00:33:01;;;;;;;;;;;;;;;;;;348606;28;917;-76
2022/06/19 00:33:11;;;;;;;;;;;;;;;;;;348621;28;750;-76
2022/06/19 00:33:22;;;;;;;;;;;;;;;;;;348435;28;1967;-76
2022/06/19 00:33:32;;;;;;;;;;;;;;;;;;348534;28;904;-76
2022/06/19 00:33:42;;;;;;;;;;;;;;;;;;348579;28;942;-75
2022/06/19 00:33:53;;;;;;;;;;;;;;;;;;348567;28;913;-76
2022/06/19 00:34:03;;;;;;;;;;;;;;;;;;348518;28;873;-76
2022/06/19 00:34:14;;;;;;;;;;;;;;;;;;348149;28;1814;-76
2022/06/19 00:34:24;;;;;;;;;;;;;;;;;;348499;28;1372;-76
2022/06/19 00:34:35;;;;;;;;;;;;;;;;;;348521;28;920;-76
2022/06/19 00:34:45;;;;;;;;;;;;;;;;;;348593;28;924;-76
2022/06/19 00:34:56;;;;;;;;;;;;;;;;;;348605;28;1003;-76
2022/06/19 00:35:06;;;;;;;;;;;;;;;;;;348514;28;1023;-76
2022/06/19 00:35:16;;;;;;;;;;;;;;;;;;348563;28;786;-76
2022/06/19 00:35:27;;;;;;;;;;;;;;;;;;348589;28;921;-76
2022/06/19 00:35:37;;;;;;;;;;;;;;;;;;348551;28;984;-76
2022/06/19 00:35:48;;;;;;;;;;;;;;;;;;348630;28;829;-76
2022/06/19 00:35:58;;;;;;;;;;;;;;;;;;348604;28;908;-76
2022/06/19 00:36:08;;;;;;;;;;;;;;;;;;348531;28;936;-76
2022/06/19 00:36:21;;;;;;;;;;;;;;;;;;348568;28;1019;-76
2022/06/19 00:36:31;;;;;;;;;;;;;;;;;;348539;28;952;-76
2022/06/19 00:36:43;;;;;;;;;;;;;;;;;;348577;28;881;-76
2022/06/19 00:36:53;;;;;;;;;;;;;;;;;;348580;28;980;-76
2022/06/19 00:37:04;;;;;;;;;;;;;;;;;;348595;28;983;-76
2022/06/19 00:37:14;;;;;;;;;;;;;;;;;;348567;28;920;-76
2022/06/19 00:37:24;;;;;;;;;;;;;;;;;;348644;28;873;-76
2022/06/19 00:37:34;;;;;;;;;;;;;;;;;;348568;28;971;-76
2022/06/19 00:37:46;;;;;;;;;;;;;;;;;;348587;28;948;-76
2022/06/19 00:37:56;;;;;;;;;;;;;;;;;;348587;28;920;-76
2022/06/19 00:38:06;;;;;;;;;;;;;;;;;;348523;28;928;-76
2022/06/19 00:38:17;;;;;;;;;;;;;;;;;;348578;28;963;-76
2022/06/19 00:38:27;;;;;;;;;;;;;;;;;;348471;28;981;-76
2022/06/19 00:38:37;;;;;;;;;;;;;;;;;;348405;28;1121;-76
2022/06/19 00:38:48;;;;;;;;;;;;;;;;;;348600;28;908;-76
2022/06/19 00:38:58;;;;;;;;;;;;;;;;;;348516;28;933;-76
2022/06/19 00:39:08;;;;;;;;;;;;;;;;;;348618;28;845;-76
2022/06/19 00:39:19;;;;;;;;;;;;;;;;;;348568;28;905;-76
2022/06/19 00:39:32;;;;;;;;;;;;;;;;;;348597;28;916;-76
2022/06/19 00:39:42;;;;;;;;;;;;;;;;;;348595;28;999;-76
2022/06/19 00:39:53;;;;;;;;;;;;;;;;;;348546;28;960;-76
2022/06/19 00:40:04;;;;;;;;;;;;;;;;;;348644;28;786;-76
2022/06/19 00:40:15;;;;;;;;;;;;;;;;;;348493;28;1082;-76
2022/06/19 00:40:26;;;;;;;;;;;;;;;;;;348598;28;940;-76
2022/06/19 00:40:37;;;;;;;;;;;;;;;;;;348425;28;980;-76
2022/06/19 00:40:47;;;;;;;;;;;;;;;;;;348561;28;861;-76
2022/06/19 00:40:57;;;;;;;;;;;;;;;;;;348598;28;1025;-76
2022/06/19 00:41:08;;;;;;;;;;;;;;;;;;348550;28;817;-76
2022/06/19 00:41:18;;;;;;;;;;;;;;;;;;348550;28;999;-76
2022/06/19 00:41:39;;;;;;;;;;;;;;;;;;348605;28;834;-76
2022/06/19 00:41:49;;;;;;;;;;;;;;;;;;348570;28;972;-76
2022/06/19 00:41:59;;;;;;;;;;;;;;;;;;349477;28;1163;-76
2022/06/19 00:42:11;;;;;;;;;;;;;;;;;;349967;28;841;-76
2022/06/19 00:42:24;;;;;;;;;;;;;;;;;;349942;28;916;-76
2022/06/19 00:42:34;;;;;;;;;;;;;;;;;;349938;28;940;-76
2022/06/19 00:42:45;;;;;;;;;;;;;;;;;;349923;28;959;-76
2022/06/19 00:42:55;;;;;;;;;;;;;;;;;;349955;28;995;-76
2022/06/19 00:43:05;;;;;;;;;;;;;;;;;;349970;28;821;-76
2022/06/19 00:43:16;;;;;;;;;;;;;;;;;;349995;28;853;-76
2022/06/19 00:43:26;;;;;;;;;;;;;;;;;;350010;28;900;-76
2022/06/19 00:43:57;;;;;;;;;;;;;;;;;;349905;28;904;-75
2022/06/19 00:44:10;;;;;;;;;;;;;;;;;;349904;28;920;-76
2022/06/19 00:44:21;;;;;;;;;;;;;;;;;;349965;28;959;-76
2022/06/19 00:44:32;;;;;;;;;;;;;;;;;;349969;28;885;-76
2022/06/19 00:44:42;;;;;;;;;;;;;;;;;;349914;28;913;-76
2022/06/19 00:44:53;;;;;;;;;;;;;;;;;;349905;28;948;-76
2022/06/19 00:45:03;;;;;;;;;;;;;;;;;;349974;28;818;-76
2022/06/19 00:45:27;;;;;;;;;;;;;;;;;;349842;28;1044;-76
2022/06/19 00:45:42;;;;;;;;;;;;;;;;;;349963;28;948;-76
2022/06/19 00:45:52;;;;;;;;;;;;;;;;;;349961;28;928;-76
2022/06/19 00:46:23;;;;;;;;;;;;;;;;;;349989;28;909;-76
2022/06/19 00:46:45;;;;;;;;;;;;;;;;;;349928;28;1071;-76
2022/06/19 00:47:02;;;;;;;;;;;;;;;;;;349922;28;971;-76
2022/06/19 00:47:20;;;;;;;;;;;;;;;;;;349995;28;988;-77
2022/06/19 00:47:35;;;;;;;;;;;;;;;;;;349926;28;948;-76
2022/06/19 00:47:45;;;;;;;;;;;;;;;;;;349978;28;896;-76
2022/06/19 00:47:55;;;;;;;;;;;;;;;;;;349925;28;1165;-76
2022/06/19 00:48:13;;;;;;;;;;;;;;;;;;349985;28;853;-76
2022/06/19 00:48:28;;;;;;;;;;;;;;;;;;349906;28;1189;-76
2022/06/19 00:48:40;;;;;;;;;;;;;;;;;;349979;28;877;-76
2022/06/19 00:48:51;;;;;;;;;;;;;;;;;;349960;28;920;-76
2022/06/19 00:49:01;;;;;;;;;;;;;;;;;;349542;28;1840;-76
2022/06/19 00:49:24;;;;;;;;;;;;;;;;;;350875;28;1361;-76
2022/06/19 00:49:37;;;;;;;;;;;;;;;;;;349899;28;896;-76
2022/06/19 00:49:49;;;;;;;;;;;;;;;;;;349982;28;928;-76
2022/06/19 00:50:06;;;;;;;;;;;;;;;;;;350012;28;920;-76
2022/06/19 00:50:25;;;;;;;;;;;;;;;;;;349711;28;1003;-76
2022/06/19 00:50:36;;;;;;;;;;;;;;;;;;349870;28;833;-76
2022/06/19 00:50:48;;;;;;;;;;;;;;;;;;350055;28;770;-76
2022/06/19 00:51:00;;;;;;;;;;;;;;;;;;349902;28;912;-76
2022/06/19 00:51:10;;;;;;;;;;;;;;;;;;349910;28;1107;-76
2022/06/19 00:51:20;;;;;;;;;;;;;;;;;;349971;28;932;-76
2022/06/19 00:51:31;;;;;;;;;;;;;;;;;;349995;28;988;-76
2022/06/19 00:51:41;;;;;;;;;;;;;;;;;;349930;28;857;-75
2022/06/19 00:52:18;;;;;;;;;;;;;;;;;;350015;28;971;-76
2022/06/19 00:52:30;;;;;;;;;;;;;;;;;;348722;28;980;-76
2022/06/19 00:52:41;;;;;;;;;;;;;;;;;;349976;28;979;-76
2022/06/19 00:52:51;;;;;;;;;;;;;;;;;;349944;28;1084;-76
2022/06/19 00:53:02;;;;;;;;;;;;;;;;;;349981;28;983;-76
2022/06/19 00:53:14;;;;;;;;;;;;;;;;;;349829;28;928;-76
2022/06/19 00:53:29;;;;;;;;;;;;;;;;;;349931;28;1914;-76
2022/06/19 00:53:45;;;;;;;;;;;;;;;;;;349918;28;896;-76
2022/06/19 00:53:56;;;;;;;;;;;;;;;;;;349980;28;817;-76
2022/06/19 00:54:09;;;;;;;;;;;;;;;;;;349944;28;833;-76
2022/06/19 00:54:20;;;;;;;;;;;;;;;;;;349966;28;887;-76
2022/06/19 00:54:46;;;;;;;;;;;;;;;;;;349905;28;916;-76
2022/06/19 00:55:01;;;;;;;;;;;;;;;;;;349906;28;967;-76
2022/06/19 00:55:16;;;;;;;;;;;;;;;;;;349952;28;936;-76
2022/06/19 00:55:28;;;;;;;;;;;;;;;;;;349951;28;920;-76
2022/06/19 00:55:40;;;;;;;;;;;;;;;;;;349946;28;967;-76
2022/06/19 00:55:50;;;;;;;;;;;;;;;;;;349945;28;944;-76
2022/06/19 00:56:02;;;;;;;;;;;;;;;;;;349988;28;778;-76
2022/06/19 00:56:17;;;;;;;;;;;;;;;;;;349500;28;1875;-76
2022/06/19 00:56:28;;;;;;;;;;;;;;;;;;349967;28;940;-77
2022/06/19 00:56:39;;;;;;;;;;;;;;;;;;349914;28;983;-76
2022/06/19 00:56:49;;;;;;;;;;;;;;;;;;349981;28;900;-76
2022/06/19 00:56:59;;;;;;;;;;;;;;;;;;349915;28;987;-76
2022/06/19 00:57:11;;;;;;;;;;;;;;;;;;349999;28;861;-76
2022/06/19 00:57:22;;;;;;;;;;;;;;;;;;350079;28;1264;-76
2022/06/19 00:57:34;;;;;;;;;;;;;;;;;;352734;28;908;-77
2022/06/19 00:57:47;;;;;;;;;;;;;;;;;;352779;28;813;-76
2022/06/19 00:57:59;;;;;;;;;;;;;;;;;;352793;28;927;-76
2022/06/19 00:58:21;;;;;;;;;;;;;;;;;;352735;28;921;-76
2022/06/19 00:58:34;;;;;;;;;;;;;;;;;;352747;28;730;-76
2022/06/19 00:58:46;;;;;;;;;;;;;;;;;;352777;28;849;-77
2022/06/19 00:58:56;;;;;;;;;;;;;;;;;;352741;28;874;-76
2022/06/19 00:59:07;;;;;;;;;;;;;;;;;;352807;28;845;-76
2022/06/19 00:59:18;;;;;;;;;;;;;;;;;;352754;28;1027;-76
2022/06/19 00:59:29;;;;;;;;;;;;;;;;;;352775;28;908;-76
2022/06/19 00:59:41;;;;;;;;;;;;;;;;;;352742;28;990;-76
2022/06/19 00:59:55;;;;;;;;;;;;;;;;;;352787;28;908;-76
2022/06/19 01:00:20;;;;;;;;;;;;;;;;;;352769;28;951;-76
2022/06/19 01:00:31;;;;;;;;;;;;;;;;;;352780;28;928;-76
2022/06/19 01:00:42;;;;;;;;;;;;;;;;;;350861;28;1806;-77
2022/06/19 01:00:55;;;;;;;;;;;;;;;;;;351365;28;900;-76
2022/06/19 01:01:08;;;;;;;;;;;;;;;;;;351288;28;960;-76
2022/06/19 01:01:21;;;;;;;;;;;;;;;;;;351331;28;900;-76
2022/06/19 01:01:32;;;;;;;;;;;;;;;;;;350979;28;1558;-76
2022/06/19 01:01:42;;;;;;;;;;;;;;;;;;351243;28;1452;-76
2022/06/19 01:01:53;;;;;;;;;;;;;;;;;;351314;28;838;-76
2022/06/19 01:02:03;;;;;;;;;;;;;;;;;;351373;28;836;-76
2022/06/19 01:02:14;;;;;;;;;;;;;;;;;;351363;28;845;-76
2022/06/19 01:02:25;;;;;;;;;;;;;;;;;;351338;28;758;-76
2022/06/19 01:02:37;;;;;;;;;;;;;;;;;;351310;28;1015;-76
2022/06/19 01:02:47;;;;;;;;;;;;;;;;;;351156;28;1464;-76
2022/06/19 01:03:00;;;;;;;;;;;;;;;;;;351205;28;1558;-76
2022/06/19 01:03:14;;;;;;;;;;;;;;;;;;351313;28;964;-77
2022/06/19 01:03:45;;;;;;;;;;;;;;;;;;351391;28;928;-76
2022/06/19 01:04:14;;;;;;;;;;;;;;;;;;348389;28;1010;-76
2022/06/19 01:04:24;;;;;;;;;;;;;;;;;;348450;28;917;-78
2022/06/19 01:04:39;;;;;;;;;;;;;;;;;;348373;28;849;-77
2022/06/19 01:04:51;;;;;;;;;;;;;;;;;;348388;28;908;-76
2022/06/19 01:05:01;;;;;;;;;;;;;;;;;;348965;28;999;-76
2022/06/19 01:05:13;;;;;;;;;;;;;;;;;;351328;28;1170;-76
2022/06/19 01:05:25;;;;;;;;;;;;;;;;;;351373;28;991;-76
2022/06/19 01:05:36;;;;;;;;;;;;;;;;;;351283;28;980;-76
2022/06/19 01:05:47;;;;;;;;;;;;;;;;;;351270;28;928;-76
2022/06/19 01:05:58;;;;;;;;;;;;;;;;;;351335;28;908;-76
2022/06/19 01:06:08;;;;;;;;;;;;;;;;;;351289;28;999;-76
2022/06/19 01:06:19;;;;;;;;;;;;;;;;;;351367;28;960;-76
2022/06/19 01:06:30;;;;;;;;;;;;;;;;;;351305;28;1015;-76
2022/06/19 01:06:40;;;;;;;;;;;;;;;;;;351301;28;940;-76
2022/06/19 01:06:50;;;;;;;;;;;;;;;;;;351333;28;1104;-76
2022/06/19 01:07:00;;;;;;;;;;;;;;;;;;351359;28;916;-76
2022/06/19 01:07:11;;;;;;;;;;;;;;;;;;351294;28;928;-76
2022/06/19 01:07:22;;;;;;;;;;;;;;;;;;351328;28;952;-76
2022/06/19 01:07:33;;;;;;;;;;;;;;;;;;351346;28;1007;-77
2022/06/19 01:07:44;;;;;;;;;;;;;;;;;;351282;28;951;-77
2022/06/19 01:07:56;;;;;;;;;;;;;;;;;;351328;28;924;-76
2022/06/19 01:08:06;;;;;;;;;;;;;;;;;;351275;28;1039;-76
2022/06/19 01:08:16;;;;;;;;;;;;;;;;;;351419;28;786;-76
2022/06/19 01:08:27;;;;;;;;;;;;;;;;;;351366;28;865;-76
2022/06/19 01:08:37;;;;;;;;;;;;;;;;;;351327;28;936;-76
2022/06/19 01:08:47;;;;;;;;;;;;;;;;;;351191;28;1131;-76
2022/06/19 01:08:58;;;;;;;;;;;;;;;;;;351211;28;1004;-76
2022/06/19 01:09:08;;;;;;;;;;;;;;;;;;351333;28;905;-76
2022/06/19 01:09:18;;;;;;;;;;;;;;;;;;351370;28;972;-76
2022/06/19 01:09:29;;;;;;;;;;;;;;;;;;351304;28;956;-76
2022/06/19 01:09:39;;;;;;;;;;;;;;;;;;351153;28;1031;-77
2022/06/19 01:09:50;;;;;;;;;;;;;;;;;;351258;28;920;-76
2022/06/19 01:10:01;;;;;;;;;;;;;;;;;;351363;28;857;-76
2022/06/19 01:10:12;;;;;;;;;;;;;;;;;;351353;28;786;-76
2022/06/19 01:10:23;;;;;;;;;;;;;;;;;;351349;28;905;-76
2022/06/19 01:10:37;;;;;;;;;;;;;;;;;;351343;28;1004;-77
2022/06/19 01:10:49;;;;;;;;;;;;;;;;;;351352;28;828;-77
2022/06/19 01:10:59;;;;;;;;;;;;;;;;;;351350;28;789;-76
2022/06/19 01:11:09;;;;;;;;;;;;;;;;;;351357;28;824;-76
2022/06/19 01:11:20;;;;;;;;;;;;;;;;;;351336;28;916;-76
2022/06/19 01:11:34;;;;;;;;;;;;;;;;;;351355;28;824;-76
2022/06/19 01:11:45;;;;;;;;;;;;;;;;;;351288;28;925;-76
2022/06/19 01:11:55;;;;;;;;;;;;;;;;;;351252;28;956;-76
2022/06/19 01:12:08;;;;;;;;;;;;;;;;;;351173;28;1188;-76
2022/06/19 01:12:19;;;;;;;;;;;;;;;;;;351321;28;932;-76
2022/06/19 01:12:31;;;;;;;;;;;;;;;;;;351340;28;928;-76
2022/06/19 01:12:42;;;;;;;;;;;;;;;;;;351281;28;920;-76
2022/06/19 01:12:52;;;;;;;;;;;;;;;;;;351384;28;987;-76
2022/06/19 01:13:03;;;;;;;;;;;;;;;;;;351332;28;888;-76
2022/06/19 01:13:14;;;;;;;;;;;;;;;;;;351290;28;916;-76
2022/06/19 01:13:27;;;;;;;;;;;;;;;;;;351290;28;1976;-76
2022/06/19 01:13:38;;;;;;;;;;;;;;;;;;351349;28;948;-76
2022/06/19 01:13:49;;;;;;;;;;;;;;;;;;351336;28;982;-76
2022/06/19 01:14:01;;;;;;;;;;;;;;;;;;351256;28;925;-76
2022/06/19 01:14:14;;;;;;;;;;;;;;;;;;351299;28;1035;-76
2022/06/19 01:14:26;;;;;;;;;;;;;;;;;;351265;28;1011;-76
2022/06/19 01:14:37;;;;;;;;;;;;;;;;;;351316;28;1007;-77
2022/06/19 01:14:49;;;;;;;;;;;;;;;;;;351301;28;838;-76
2022/06/19 01:15:03;;;;;;;;;;;;;;;;;;351312;28;996;-76
2022/06/19 01:15:18;;;;;;;;;;;;;;;;;;351354;28;920;-77
2022/06/19 01:15:28;;;;;;;;;;;;;;;;;;350378;28;1832;-76
2022/06/19 01:15:39;;;;;;;;;;;;;;;;;;351761;28;1575;-76
2022/06/19 01:15:50;;;;;;;;;;;;;;;;;;349956;28;987;-76
2022/06/19 01:16:01;;;;;;;;;;;;;;;;;;349878;28;895;-76
2022/06/19 01:16:12;;;;;;;;;;;;;;;;;;349979;28;857;-76
2022/06/19 01:16:23;;;;;;;;;;;;;;;;;;349895;28;1107;-76
2022/06/19 01:16:34;;;;;;;;;;;;;;;;;;349910;28;952;-76
2022/06/19 01:16:44;;;;;;;;;;;;;;;;;;349941;28;937;-76
2022/06/19 01:16:55;;;;;;;;;;;;;;;;;;349987;28;779;-76
2022/06/19 01:17:05;;;;;;;;;;;;;;;;;;349892;28;972;-76
2022/06/19 01:17:16;;;;;;;;;;;;;;;;;;349958;28;916;-76
2022/06/19 01:17:28;;;;;;;;;;;;;;;;;;349944;28;940;-76
2022/06/19 01:17:38;;;;;;;;;;;;;;;;;;349951;28;829;-76
2022/06/19 01:17:51;;;;;;;;;;;;;;;;;;349963;28;924;-76
2022/06/19 01:18:03;;;;;;;;;;;;;;;;;;349948;28;976;-76
2022/06/19 01:18:13;;;;;;;;;;;;;;;;;;349808;28;936;-76
2022/06/19 01:18:24;;;;;;;;;;;;;;;;;;349847;28;1136;-76
2022/06/19 01:18:35;;;;;;;;;;;;;;;;;;349969;28;968;-76
2022/06/19 01:18:45;;;;;;;;;;;;;;;;;;349909;28;920;-76
2022/06/19 01:18:58;;;;;;;;;;;;;;;;;;349913;28;870;-76
2022/06/19 01:19:09;;;;;;;;;;;;;;;;;;349906;28;921;-76
2022/06/19 01:19:22;;;;;;;;;;;;;;;;;;349936;28;944;-76
2022/06/19 01:19:36;;;;;;;;;;;;;;;;;;349895;28;964;-77
2022/06/19 01:19:47;;;;;;;;;;;;;;;;;;349976;28;921;-76
2022/06/19 01:19:57;;;;;;;;;;;;;;;;;;350002;28;912;-76
2022/06/19 01:20:10;;;;;;;;;;;;;;;;;;349925;28;921;-76
2022/06/19 01:20:22;;;;;;;;;;;;;;;;;;349781;28;1070;-77
2022/06/19 01:20:33;;;;;;;;;;;;;;;;;;349944;28;928;-76
2022/06/19 01:20:43;;;;;;;;;;;;;;;;;;349903;28;800;-76
2022/06/19 01:20:57;;;;;;;;;;;;;;;;;;349896;28;932;-76
2022/06/19 01:21:16;;;;;;;;;;;;;;;;;;349920;28;881;-76
2022/06/19 01:21:39;;;;;;;;;;;;;;;;;;349841;28;895;-76
2022/06/19 01:22:00;;;;;;;;;;;;;;;;;;349894;28;927;-75
2022/06/19 01:22:27;;;;;;;;;;;;;;;;;;349905;28;904;-76
2022/06/19 01:22:38;;;;;;;;;;;;;;;;;;349818;28;1134;-76
2022/06/19 01:22:57;;;;;;;;;;;;;;;;;;349921;28;1003;-76
2022/06/19 01:23:07;;;;;;;;;;;;;;;;;;349838;28;933;-76